Time;durP1;ratioP1;P1;durP2;ratioP2;P2;SDS_P1;SDS_P2;PMS_P1;PMS_P2;Temp;Humidity;BMP_temperature;BMP_pressure;BME280_temperature;BME280_humidity;BME280_pressure;Samples;Min_cycle;Max_cycle;Signal;HPM_P1;HPM_P2
2023/12/27 16:06:54;;;;;;;0.80;0.80;;;8.40;95.90;;;;;;6236017;22;20513;-84
2023/12/27 16:09:19;;;;;;;0.80;0.80;;;8.30;95.80;;;;;;6251244;23;20008;-86
2023/12/27 16:11:47;;;;;;;0.80;0.80;;;8.40;95.80;;;;;;6197736;23;20015;-81
2023/12/27 16:14:15;;;;;;;0.80;0.80;;;8.40;95.80;;;;;;6222754;23;20491;-87
2023/12/27 16:16:43;;;;;;;0.95;0.95;;;8.40;95.90;;;;;;6243570;23;20369;-84
2023/12/27 16:19:09;;;;;;;0.90;0.90;;;8.40;95.90;;;;;;6244218;23;20015;-84
2023/12/27 16:21:35;;;;;;;;;;;8.50;96.00;;;;;;6221000;23;20016;-83
2023/12/27 16:24:02;;;;;;;0.90;0.90;;;8.60;95.90;;;;;;6244820;23;19903;-83
2023/12/27 16:26:28;;;;;;;1.00;1.00;;;8.60;95.80;;;;;;6245691;23;20012;-82
2023/12/27 16:28:57;;;;;;;1.00;1.00;;;8.60;95.80;;;;;;6246935;23;20023;-83
2023/12/27 16:31:22;;;;;;;0.90;0.90;;;8.60;95.80;;;;;;6246763;23;20004;-81
2023/12/27 16:33:51;;;;;;;0.80;0.80;;;8.60;95.90;;;;;;6247958;23;20436;-82
2023/12/27 16:36:17;;;;;;;0.90;0.90;;;8.60;95.90;;;;;;6220965;23;20070;-84
2023/12/27 16:38:43;;;;;;;0.90;0.90;;;8.70;95.90;;;;;;6194993;23;20008;-82
2023/12/27 16:41:10;;;;;;;0.90;0.90;;;8.70;95.90;;;;;;6220485;23;20005;-84
2023/12/27 16:43:41;;;;;;;0.85;0.85;;;8.80;95.90;;;;;;6245552;23;20054;-81
2023/12/27 16:46:07;;;;;;;0.77;0.77;;;8.80;95.90;;;;;;6245060;23;20008;-81
2023/12/27 16:48:34;;;;;;;0.80;0.80;;;8.90;96.00;;;;;;6244809;23;20011;-84
2023/12/27 16:51:00;;;;;;;;;;;8.90;96.00;;;;;;6220480;23;20008;-81
2023/12/27 16:53:26;;;;;;;0.70;0.70;;;9.00;96.00;;;;;;6246797;22;19904;-83
2023/12/27 16:55:52;;;;;;;0.88;0.88;;;9.00;95.90;;;;;;6219859;23;20115;-82
2023/12/27 16:58:21;;;;;;;0.95;0.95;;;9.10;95.90;;;;;;6246595;23;20005;-84
2023/12/27 17:00:48;;;;;;;0.88;0.88;;;9.10;96.10;;;;;;6245827;23;20380;-83
2023/12/27 17:03:14;;;;;;;0.80;0.80;;;9.10;95.90;;;;;;6220039;23;20497;-84
2023/12/27 17:05:40;;;;;;;0.80;0.80;;;9.10;95.90;;;;;;6246563;22;20016;-81
2023/12/27 17:08:08;;;;;;;0.60;0.60;;;9.10;95.90;;;;;;6246766;22;20644;-83
2023/12/27 17:10:34;;;;;;;0.60;0.60;;;9.20;96.10;;;;;;6246575;23;20011;-84
2023/12/27 17:13:01;;;;;;;0.50;0.50;;;9.20;95.90;;;;;;6245975;23;20010;-82
2023/12/27 17:15:30;;;;;;;0.40;0.40;;;9.20;95.90;;;;;;6220015;23;20323;-82
2023/12/27 17:17:56;;;;;;;0.40;0.40;;;9.30;96.00;;;;;;6218621;23;20080;-82
2023/12/27 17:20:22;;;;;;;0.40;0.40;;;9.30;96.00;;;;;;6244911;23;20015;-85
2023/12/27 17:22:48;;;;;;;0.32;0.32;;;9.40;96.00;;;;;;6244999;23;20008;-82
2023/12/27 17:25:15;;;;;;;0.30;0.30;;;9.40;95.90;;;;;;6244587;23;20008;-83
2023/12/27 17:27:41;;;;;;;0.20;0.20;;;9.40;95.80;;;;;;6246019;22;20019;-83
2023/12/27 17:30:07;;;;;;;;;;;9.40;95.80;;;;;;6220220;23;20070;-84
2023/12/27 17:32:34;;;;;;;0.30;0.30;;;9.30;95.80;;;;;;6219953;23;19911;-84
2023/12/27 17:35:00;;;;;;;0.30;0.30;;;9.30;95.80;;;;;;6245251;23;20610;-83
2023/12/27 17:37:25;;;;;;;0.30;0.30;;;9.30;96.00;;;;;;6220895;23;20028;-83
2023/12/27 17:39:52;;;;;;;0.20;0.20;;;9.30;96.20;;;;;;6196330;23;20456;-83
2023/12/27 17:42:17;;;;;;;;;;;9.30;96.10;;;;;;6220866;23;20089;-83
2023/12/27 17:44:44;;;;;;;0.20;0.20;;;9.40;96.10;;;;;;6245866;23;20306;-82
2023/12/27 17:47:09;;;;;;;;;;;9.40;96.00;;;;;;6220871;23;20036;-84
2023/12/27 17:49:35;;;;;;;0.20;0.20;;;9.50;96.00;;;;;;6246950;23;20328;-83
2023/12/27 17:52:00;;;;;;;0.20;0.20;;;9.50;95.90;;;;;;6195126;23;20016;-82
2023/12/27 17:54:26;;;;;;;0.20;0.20;;;9.50;95.90;;;;;;6246360;23;20008;-86
2023/12/27 17:56:52;;;;;;;0.15;0.15;;;9.50;95.90;;;;;;6195915;23;20012;-85
2023/12/27 17:59:18;;;;;;;0.20;0.20;;;9.40;95.90;;;;;;6220727;23;20410;-85
2023/12/27 18:01:44;;;;;;;0.20;0.20;;;9.40;95.80;;;;;;6221229;23;20062;-87
2023/12/27 18:04:11;;;;;;;0.20;0.20;;;9.30;95.70;;;;;;6218901;23;20057;-86
2023/12/27 18:06:36;;;;;;;0.20;0.20;;;9.20;95.60;;;;;;6218737;23;20031;-84
2023/12/27 18:09:04;;;;;;;0.32;0.32;;;9.00;95.50;;;;;;6220201;23;20004;-85
2023/12/27 18:11:34;;;;;;;0.20;0.20;;;8.90;95.50;;;;;;6196874;23;20000;-85
2023/12/27 18:14:00;;;;;;;0.20;0.20;;;8.80;95.50;;;;;;6248066;22;20325;-84
2023/12/27 18:16:27;;;;;;;0.30;0.30;;;8.70;95.50;;;;;;6220461;23;20032;-83
2023/12/27 18:18:53;;;;;;;0.22;0.22;;;8.60;95.60;;;;;;6197189;23;20031;-85
2023/12/27 18:21:20;;;;;;;0.20;0.20;;;8.50;95.70;;;;;;6244999;23;20430;-81
2023/12/27 18:23:45;;;;;;;0.20;0.20;;;8.50;95.70;;;;;;6220226;23;20004;-81
2023/12/27 18:26:11;;;;;;;0.20;0.20;;;8.40;95.70;;;;;;6246825;23;20094;-79
2023/12/27 18:28:37;;;;;;;0.20;0.20;;;8.40;95.70;;;;;;6246413;23;20004;-83
2023/12/27 18:31:03;;;;;;;0.20;0.20;;;8.40;95.70;;;;;;6219665;23;20019;-84
2023/12/27 18:33:28;;;;;;;0.30;0.30;;;8.30;95.60;;;;;;6244415;23;20012;-84
2023/12/27 18:35:57;;;;;;;0.25;0.25;;;8.30;95.60;;;;;;6244689;23;20005;-86
2023/12/27 18:38:23;;;;;;;0.20;0.20;;;8.20;95.60;;;;;;6219819;23;20012;-85
2023/12/27 18:40:49;;;;;;;0.20;0.20;;;8.10;95.50;;;;;;6246423;23;20004;-84
2023/12/27 18:43:15;;;;;;;0.20;0.20;;;8.00;95.70;;;;;;6245268;23;20086;-84
2023/12/27 18:45:41;;;;;;;0.30;0.30;;;7.90;95.50;;;;;;6246074;23;20311;-83
2023/12/27 18:48:08;;;;;;;0.30;0.30;;;7.90;95.60;;;;;;6220831;23;20012;-83
2023/12/27 18:50:35;;;;;;;0.40;0.40;;;7.80;95.60;;;;;;6246312;23;20438;-82
2023/12/27 18:53:01;;;;;;;0.30;0.30;;;7.70;95.60;;;;;;6242938;23;20016;-84
2023/12/27 18:55:27;;;;;;;0.20;0.20;;;7.70;95.70;;;;;;6242737;23;20031;-83
2023/12/27 18:57:52;;;;;;;0.20;0.20;;;7.60;95.70;;;;;;6242454;23;20008;-83
2023/12/27 19:00:18;;;;;;;0.20;0.20;;;7.60;95.60;;;;;;6191251;23;20291;-84
2023/12/27 19:02:44;;;;;;;0.22;0.22;;;7.60;95.70;;;;;;6239283;23;20015;-83
2023/12/27 19:05:10;;;;;;;0.30;0.30;;;7.60;95.70;;;;;;6214100;23;20012;-79
2023/12/27 19:07:35;;;;;;;0.20;0.20;;;7.50;95.60;;;;;;6239620;23;20012;-79
2023/12/27 19:10:01;;;;;;;0.20;0.20;;;7.50;95.70;;;;;;6239463;23;20038;-80
2023/12/27 19:12:28;;;;;;;0.20;0.20;;;7.50;95.70;;;;;;6241519;22;20031;-79
2023/12/27 19:14:54;;;;;;;0.20;0.20;;;7.50;95.70;;;;;;6190777;23;20073;-79
2023/12/27 19:17:19;;;;;;;0.30;0.30;;;7.50;95.70;;;;;;6242585;23;20008;-80
2023/12/27 19:19:45;;;;;;;0.20;0.20;;;7.50;95.70;;;;;;6193005;23;20426;-79
2023/12/27 19:22:11;;;;;;;0.20;0.20;;;7.50;95.70;;;;;;6242833;23;20054;-79
2023/12/27 19:24:37;;;;;;;0.20;0.20;;;7.60;95.70;;;;;;6243315;23;20004;-79
2023/12/27 19:27:06;;;;;;;0.20;0.20;;;7.60;95.70;;;;;;6243033;23;20015;-79
2023/12/27 19:29:32;;;;;;;0.10;0.10;;;7.60;95.70;;;;;;6242957;23;20385;-79
2023/12/27 19:31:57;;;;;;;0.30;0.30;;;7.70;95.70;;;;;;6217726;23;20067;-80
2023/12/27 19:34:23;;;;;;;0.20;0.20;;;7.70;95.70;;;;;;6217824;23;20422;-79
2023/12/27 19:36:50;;;;;;;0.20;0.20;;;7.80;95.70;;;;;;6217363;23;20337;-79
2023/12/27 19:39:16;;;;;;;;;;;7.80;95.70;;;;;;6243361;23;20430;-79
2023/12/27 19:41:44;;;;;;;0.20;0.20;;;7.90;95.70;;;;;;6217515;23;20433;-79
2023/12/27 19:44:12;;;;;;;0.10;0.10;;;7.90;95.60;;;;;;6220123;23;19996;-80
2023/12/27 19:46:38;;;;;;;0.10;0.10;;;7.90;95.60;;;;;;6218589;23;20004;-80
2023/12/27 19:49:03;;;;;;;0.20;0.20;;;8.00;95.60;;;;;;6243216;23;20008;-79
2023/12/27 19:51:30;;;;;;;0.10;0.10;;;8.00;95.60;;;;;;6191948;23;20031;-79
2023/12/27 19:53:55;;;;;;;;;;;8.00;95.60;;;;;;6218043;23;20008;-79
2023/12/27 19:56:21;;;;;;;0.13;0.13;;;8.10;95.60;;;;;;6217621;23;19911;-79
2023/12/27 19:58:47;;;;;;;0.20;0.20;;;8.10;95.50;;;;;;6243123;23;20011;-78
2023/12/27 20:01:13;;;;;;;0.10;0.10;;;8.10;95.50;;;;;;6242286;23;20000;-79
2023/12/27 20:03:39;;;;;;;0.20;0.20;;;8.10;95.50;;;;;;6242530;23;20004;-79
2023/12/27 20:06:07;;;;;;;0.20;0.20;;;8.10;95.50;;;;;;6242469;23;20392;-79
2023/12/27 20:08:33;;;;;;;0.30;0.30;;;8.10;95.50;;;;;;6217536;23;20102;-79
2023/12/27 20:10:58;;;;;;;0.40;0.40;;;8.10;95.40;;;;;;6217829;23;20043;-79
2023/12/27 20:13:24;;;;;;;0.57;0.57;;;8.10;95.40;;;;;;6217284;23;20008;-80
2023/12/27 20:15:50;;;;;;;0.40;0.40;;;8.00;95.30;;;;;;6216845;23;20008;-80
2023/12/27 20:18:16;;;;;;;0.50;0.50;;;8.00;95.30;;;;;;6217212;23;20078;-80
2023/12/27 20:20:42;;;;;;;0.50;0.50;;;7.90;95.30;;;;;;6244219;22;20474;-80
2023/12/27 20:23:09;;;;;;;0.80;0.77;;;7.90;95.40;;;;;;6217202;23;20039;-79
2023/12/27 20:25:35;;;;;;;0.70;0.70;;;7.90;95.40;;;;;;6217275;23;20008;-79
2023/12/27 20:28:02;;;;;;;0.50;0.50;;;7.90;95.40;;;;;;6217042;23;20023;-79
2023/12/27 20:30:28;;;;;;;0.65;0.65;;;7.90;95.40;;;;;;6243902;22;20279;-79
2023/12/27 20:32:54;;;;;;;0.60;0.60;;;7.90;95.40;;;;;;6243789;22;20027;-80
2023/12/27 20:35:20;;;;;;;0.60;0.60;;;7.90;95.40;;;;;;6192316;23;20091;-79
2023/12/27 20:37:46;;;;;;;0.60;0.60;;;7.90;95.40;;;;;;6242444;23;20027;-79
2023/12/27 20:40:12;;;;;;;0.63;0.63;;;7.90;95.40;;;;;;6242175;23;20058;-79
2023/12/27 20:42:38;;;;;;;0.77;0.77;;;7.90;95.40;;;;;;6241954;23;20011;-80
2023/12/27 20:45:07;;;;;;;0.60;0.60;;;7.90;95.40;;;;;;6217072;23;20078;-79
2023/12/27 20:47:32;;;;;;;0.70;0.70;;;7.90;95.40;;;;;;6217235;23;20077;-79
2023/12/27 20:49:58;;;;;;;0.70;0.70;;;8.00;95.40;;;;;;6216841;23;20091;-79
2023/12/27 20:52:24;;;;;;;0.60;0.60;;;8.00;95.40;;;;;;6242103;23;20015;-78
2023/12/27 20:54:50;;;;;;;0.60;0.60;;;8.00;95.40;;;;;;6191728;23;20040;-79
2023/12/27 20:57:16;;;;;;;0.70;0.70;;;8.00;95.40;;;;;;6216853;23;20066;-79
2023/12/27 20:59:41;;;;;;;0.70;0.70;;;8.00;95.40;;;;;;6192350;23;20056;-78
2023/12/27 21:02:07;;;;;;;0.68;0.68;;;8.10;95.40;;;;;;6241786;23;20500;-78
2023/12/27 21:04:33;;;;;;;0.70;0.70;;;8.10;95.40;;;;;;6216710;23;20008;-79
2023/12/27 21:07:00;;;;;;;0.60;0.60;;;8.10;95.40;;;;;;6216588;23;20015;-79
2023/12/27 21:09:26;;;;;;;0.70;0.70;;;8.10;95.40;;;;;;6217037;23;20091;-78
2023/12/27 21:11:52;;;;;;;0.70;0.70;;;8.10;95.40;;;;;;6241578;23;20500;-78
2023/12/27 21:14:18;;;;;;;0.70;0.70;;;8.10;95.40;;;;;;6216446;23;20007;-79
2023/12/27 21:16:44;;;;;;;0.70;0.70;;;8.10;95.40;;;;;;6216932;23;20016;-79
2023/12/27 21:19:11;;;;;;;0.60;0.60;;;8.10;95.40;;;;;;6217265;23;20013;-78
2023/12/27 21:21:44;;;;;;;0.70;0.70;;;8.10;95.40;;;;;;6242162;23;20010;-79
2023/12/27 21:24:11;;;;;;;0.60;0.60;;;8.10;95.50;;;;;;6242184;23;20012;-79
2023/12/27 21:26:37;;;;;;;0.70;0.70;;;8.00;95.50;;;;;;6242297;23;20413;-78
2023/12/27 21:29:02;;;;;;;0.60;0.60;;;8.00;95.50;;;;;;6217351;23;20008;-78
2023/12/27 21:31:28;;;;;;;0.63;0.63;;;8.10;95.60;;;;;;6217200;23;20138;-79
2023/12/27 21:33:54;;;;;;;0.57;0.57;;;8.10;95.60;;;;;;6244453;22;20062;-79
2023/12/27 21:36:30;;;;;;;0.60;0.60;;;8.10;95.50;;;;;;6218209;23;20016;-78
2023/12/27 21:38:56;;;;;;;0.70;0.70;;;8.10;95.60;;;;;;6243488;23;20000;-77
2023/12/27 21:41:24;;;;;;;0.60;0.60;;;8.10;95.60;;;;;;6192509;23;20095;-78
2023/12/27 21:43:50;;;;;;;0.50;0.50;;;8.10;95.60;;;;;;6191998;23;20012;-78
2023/12/27 21:46:21;;;;;;;0.60;0.60;;;8.10;95.50;;;;;;6216402;23;20035;-78
2023/12/27 21:48:47;;;;;;;0.60;0.60;;;8.00;95.60;;;;;;6241751;23;20004;-78
2023/12/27 21:51:20;;;;;;;0.50;0.50;;;8.00;95.60;;;;;;6241518;23;20353;-78
2023/12/27 21:53:46;;;;;;;0.50;0.50;;;8.10;95.70;;;;;;6241835;23;20077;-78
2023/12/27 21:56:21;;;;;;;0.50;0.50;;;8.10;95.70;;;;;;6241740;23;20288;-78
2023/12/27 21:58:48;;;;;;;0.68;0.68;;;8.10;95.60;;;;;;6243360;22;20422;-78
2023/12/27 22:01:15;;;;;;;0.50;0.50;;;8.10;95.60;;;;;;6216099;23;20426;-78
2023/12/27 22:03:42;;;;;;;0.55;0.55;;;8.10;95.60;;;;;;6216143;23;20023;-78
2023/12/27 22:06:11;;;;;;;0.50;0.50;;;8.10;95.50;;;;;;6243086;22;20024;-79
2023/12/27 22:08:37;;;;;;;0.50;0.50;;;8.10;95.50;;;;;;6192349;23;20066;-79
2023/12/27 22:11:03;;;;;;;;;;;8.00;95.50;;;;;;6241965;23;20282;-78
2023/12/27 22:13:29;;;;;;;0.50;0.50;;;8.00;95.60;;;;;;6243715;22;19908;-78
2023/12/27 22:15:54;;;;;;;0.40;0.40;;;8.00;95.60;;;;;;6241269;23;20016;-78
2023/12/27 22:18:20;;;;;;;0.40;0.40;;;8.00;95.70;;;;;;6191365;23;20012;-78
2023/12/27 22:20:46;;;;;;;0.40;0.40;;;8.10;95.60;;;;;;6191268;23;20008;-79
2023/12/27 22:23:11;;;;;;;0.50;0.50;;;8.20;95.70;;;;;;6241570;23;20401;-78
2023/12/27 22:25:37;;;;;;;0.40;0.40;;;8.20;95.60;;;;;;6191196;23;20019;-79
2023/12/27 22:28:03;;;;;;;0.50;0.50;;;8.20;95.60;;;;;;6241678;23;20012;-79
2023/12/27 22:30:29;;;;;;;0.50;0.50;;;8.20;95.60;;;;;;6216186;23;20015;-79
2023/12/27 22:32:55;;;;;;;0.55;0.55;;;8.20;95.60;;;;;;6241158;23;20075;-79
2023/12/27 22:35:21;;;;;;;0.50;0.50;;;8.20;95.60;;;;;;6241319;23;20092;-78
2023/12/27 22:37:46;;;;;;;0.60;0.60;;;8.20;95.50;;;;;;6191324;23;20389;-79
2023/12/27 22:40:12;;;;;;;0.60;0.60;;;8.20;95.60;;;;;;6191218;23;20095;-78
2023/12/27 22:42:38;;;;;;;0.70;0.70;;;8.10;95.30;;;;;;6191215;23;20054;-79
2023/12/27 22:45:04;;;;;;;0.70;0.70;;;8.00;95.30;;;;;;6216355;23;20004;-79
2023/12/27 22:47:30;;;;;;;1.00;1.00;;;7.90;95.30;;;;;;6216866;23;20043;-79
2023/12/27 22:49:56;;;;;;;2.20;2.00;;;7.80;95.20;;;;;;6216263;23;20007;-79
2023/12/27 22:52:21;;;;;;;2.80;2.60;;;7.70;95.20;;;;;;6191312;23;20057;-79
2023/12/27 22:54:47;;;;;;;3.10;2.90;;;7.60;95.20;;;;;;6216238;23;20453;-79
2023/12/27 22:57:14;;;;;;;6.68;6.28;;;7.50;95.20;;;;;;6191109;23;20008;-78
2023/12/27 22:59:40;;;;;;;8.30;7.90;;;7.50;95.30;;;;;;6216630;23;20004;-79
2023/12/27 23:02:06;;;;;;;;;;;7.40;95.30;;;;;;6216966;23;20086;-79
2023/12/27 23:04:33;;;;;;;4.70;4.40;;;7.40;95.30;;;;;;6241578;23;19927;-79
2023/12/27 23:06:58;;;;;;;4.80;4.50;;;7.30;95.30;;;;;;6241052;23;20087;-79
2023/12/27 23:09:24;;;;;;;4.63;4.32;;;7.30;95.40;;;;;;6216492;23;20064;-79
2023/12/27 23:11:50;;;;;;;3.72;3.42;;;7.30;95.40;;;;;;6216162;23;20070;-79
2023/12/27 23:14:16;;;;;;;2.88;2.67;;;7.30;95.40;;;;;;6216183;23;20027;-79
2023/12/27 23:16:41;;;;;;;2.58;2.38;;;7.40;95.50;;;;;;6241423;23;20008;-79
2023/12/27 23:19:07;;;;;;;2.97;2.78;;;7.40;95.50;;;;;;6216201;23;20437;-78
2023/12/27 23:21:33;;;;;;;2.90;2.70;;;7.40;95.50;;;;;;6241535;23;20050;-79
2023/12/27 23:23:59;;;;;;;3.72;3.42;;;7.40;95.50;;;;;;6241262;23;20043;-79
2023/12/27 23:26:24;;;;;;;4.63;4.32;;;7.50;95.50;;;;;;6216706;23;20012;-79
2023/12/27 23:28:50;;;;;;;4.03;3.72;;;7.50;95.50;;;;;;6243315;23;20015;-79
2023/12/27 23:31:16;;;;;;;4.88;4.57;;;7.60;95.50;;;;;;6217999;23;20456;-79
2023/12/27 23:33:42;;;;;;;5.00;4.70;;;7.60;95.50;;;;;;6218235;23;20043;-79
2023/12/27 23:36:09;;;;;;;5.10;4.80;;;7.60;95.40;;;;;;6243165;23;20000;-79
2023/12/27 23:38:35;;;;;;;4.15;3.85;;;7.60;95.40;;;;;;6217891;23;20004;-79
2023/12/27 23:41:01;;;;;;;4.25;3.95;;;7.60;95.40;;;;;;6243278;23;20008;-78
2023/12/27 23:43:27;;;;;;;3.42;3.17;;;7.70;95.50;;;;;;6244923;22;20422;-78
2023/12/27 23:45:53;;;;;;;3.55;3.25;;;7.70;95.50;;;;;;6218091;23;20004;-78
2023/12/27 23:48:18;;;;;;;2.60;2.40;;;7.70;95.50;;;;;;6243015;23;20046;-78
2023/12/27 23:50:44;;;;;;;2.50;2.30;;;7.80;95.60;;;;;;6218022;23;20130;-79
2023/12/27 23:53:10;;;;;;;1.90;1.80;;;7.90;95.50;;;;;;6242802;23;20062;-79
2023/12/27 23:55:36;;;;;;;1.50;1.40;;;7.90;95.60;;;;;;6242912;23;20008;-79
2023/12/27 23:58:02;;;;;;;1.40;1.30;;;7.90;95.60;;;;;;6217817;23;20075;-78
